createdAt,value
2019-05-16T00:02:08.920Z,98714.00
2019-05-16T00:04:37.821Z,98711.00
2019-05-16T00:07:07.892Z,98712.00
2019-05-16T00:09:34.667Z,98703.00
2019-05-16T00:12:02.085Z,98706.00
2019-05-16T00:14:29.253Z,98704.00
2019-05-16T00:16:58.872Z,98704.00
2019-05-16T00:19:25.832Z,98706.00
2019-05-16T00:21:53.469Z,98696.00
2019-05-16T00:24:20.625Z,98702.00
2019-05-16T00:26:48.180Z,98693.00
2019-05-16T00:29:18.273Z,98692.00
2019-05-16T00:31:45.242Z,98691.00
2019-05-16T00:34:12.471Z,98685.00
2019-05-16T00:36:39.750Z,98683.00
2019-05-16T00:39:08.413Z,98681.00
2019-05-16T00:41:40.294Z,98687.00
2019-05-16T00:44:08.376Z,98679.00
2019-05-16T00:46:38.371Z,98676.00
2019-05-16T00:49:05.216Z,98679.00
2019-05-16T00:51:32.481Z,98673.00
2019-05-16T00:53:59.821Z,98665.00
2019-05-16T00:56:28.946Z,98668.00
2019-05-16T00:58:58.843Z,98666.00
2019-05-16T01:01:28.164Z,98666.00
2019-05-16T01:03:55.169Z,98665.00
2019-05-16T01:08:49.471Z,98660.00
2019-05-16T01:11:18.491Z,98653.00
2019-05-16T01:13:48.490Z,98656.00
2019-05-16T01:16:15.078Z,98653.00
2019-05-16T01:18:42.391Z,98654.00
2019-05-16T01:21:09.413Z,98656.00
2019-05-16T01:23:38.827Z,98648.00
2019-05-16T01:26:07.973Z,98646.00
2019-05-16T01:28:35.117Z,98647.00
2019-05-16T01:31:02.401Z,98647.00
2019-05-16T01:33:29.645Z,98641.00
2019-05-16T01:35:58.483Z,98638.00
2019-05-16T01:38:28.342Z,98635.00
2019-05-16T01:40:55.511Z,98633.00
2019-05-16T01:43:22.961Z,98632.00
2019-05-16T01:45:50.415Z,98639.00
2019-05-16T01:48:19.189Z,98626.00
2019-05-16T01:50:48.108Z,98625.00
2019-05-16T01:53:17.670Z,98627.00
2019-05-16T01:55:44.961Z,98622.00
2019-05-16T01:58:12.100Z,98622.00
2019-05-16T02:00:52.282Z,98624.00
2019-05-16T02:03:09.878Z,98623.00
2019-05-16T02:05:38.731Z,98612.00
2019-05-16T02:08:08.614Z,98611.00
2019-05-16T02:10:37.742Z,98613.00
2019-05-16T02:13:04.807Z,98610.00
2019-05-16T02:15:31.970Z,98598.00
2019-05-16T02:17:59.287Z,98596.00
2019-05-16T02:20:28.305Z,98600.00
2019-05-16T02:22:55.711Z,98600.00
2019-05-16T02:25:23.030Z,98599.00
2019-05-16T02:27:50.292Z,98591.00
2019-05-16T02:30:21.725Z,98591.00
2019-05-16T02:32:51.899Z,98582.00
2019-05-16T02:35:20.693Z,98585.00
2019-05-16T02:37:47.308Z,98589.00
2019-05-16T02:40:21.137Z,98582.00
2019-05-16T02:42:51.217Z,98575.00
2019-05-16T02:45:23.835Z,98568.00
2019-05-16T02:47:51.304Z,98563.00
2019-05-16T02:50:21.882Z,98560.00
2019-05-16T02:52:47.502Z,98566.00
2019-05-16T02:55:14.832Z,98560.00
2019-05-16T02:57:42.068Z,98565.00
2019-05-16T03:00:12.103Z,98562.00
2019-05-16T03:02:41.930Z,98568.00
2019-05-16T03:05:11.999Z,98562.00
2019-05-16T03:07:46.758Z,98556.00
2019-05-16T03:10:11.608Z,98568.00
2019-05-16T03:12:41.132Z,98558.00
2019-05-16T03:15:10.988Z,98551.00
2019-05-16T03:17:42.622Z,98555.00
2019-05-16T03:20:12.316Z,98547.00
2019-05-16T03:22:41.115Z,98542.00
2019-05-16T03:25:11.415Z,98543.00
2019-05-16T03:27:41.431Z,98549.00
2019-05-16T03:30:14.314Z,98542.00
2019-05-16T03:32:37.605Z,98546.00
2019-05-16T03:35:06.989Z,98546.00
2019-05-16T03:37:49.932Z,98555.00
2019-05-16T03:40:04.805Z,98540.00
2019-05-16T03:42:32.361Z,98534.00
2019-05-16T03:45:02.112Z,98528.00
2019-05-16T03:47:31.309Z,98526.00
2019-05-16T03:50:21.775Z,98528.00
2019-05-16T03:52:50.771Z,98527.00
2019-05-16T03:55:21.101Z,98524.00
2019-05-16T03:57:47.379Z,98526.00
2019-05-16T04:00:15.535Z,98527.00
2019-05-16T04:02:45.793Z,98519.00
2019-05-16T04:05:11.896Z,98527.00
2019-05-16T04:07:41.461Z,98523.00
2019-05-16T04:10:10.982Z,98518.00
2019-05-16T04:12:42.038Z,98517.00
2019-05-16T04:15:11.371Z,98522.00
2019-05-16T04:17:41.010Z,98522.00
2019-05-16T04:20:11.511Z,98518.00
2019-05-16T04:22:40.809Z,98515.00
2019-05-16T04:25:10.877Z,98515.00
2019-05-16T04:27:36.911Z,98509.00
2019-05-16T04:30:07.381Z,98510.00
2019-05-16T04:32:34.885Z,98509.00
2019-05-16T04:35:02.806Z,98501.00
2019-05-16T04:37:31.353Z,98505.00
2019-05-16T04:40:01.361Z,98502.00
2019-05-16T04:42:31.078Z,98498.00
2019-05-16T04:45:00.807Z,98506.00
2019-05-16T04:47:26.899Z,98508.00
2019-05-16T04:49:54.251Z,98508.00
2019-05-16T04:52:21.934Z,98502.00
2019-05-16T04:54:51.245Z,98500.00
2019-05-16T04:57:20.924Z,98505.00
2019-05-16T04:59:50.614Z,98501.00
2019-05-16T05:02:16.556Z,98504.00
2019-05-16T05:04:43.795Z,98498.00
2019-05-16T05:07:11.457Z,98502.00
2019-05-16T05:09:40.934Z,98502.00
2019-05-16T05:12:11.157Z,98505.00
2019-05-16T05:14:37.614Z,98498.00
2019-05-16T05:17:05.532Z,98503.00
2019-05-16T05:19:33.051Z,98498.00
2019-05-16T05:22:01.317Z,98497.00
2019-05-16T05:24:30.236Z,98506.00
2019-05-16T05:29:25.641Z,98497.00
2019-05-16T05:31:54.938Z,98507.00
2019-05-16T05:34:21.876Z,98499.00
2019-05-16T05:36:51.222Z,98505.00
2019-05-16T05:39:20.050Z,98487.00
2019-05-16T05:41:47.537Z,98502.00
2019-05-16T05:44:15.096Z,98496.00
2019-05-16T05:46:42.514Z,98493.00
2019-05-16T05:49:10.446Z,98489.00
2019-05-16T05:51:40.426Z,98493.00
2019-05-16T05:54:07.247Z,98495.00
2019-05-16T05:56:34.680Z,98497.00
2019-05-16T05:59:02.522Z,98506.00
2019-05-16T06:01:31.489Z,98500.00
2019-05-16T06:03:59.776Z,98495.00
2019-05-16T06:06:27.301Z,98500.00
2019-05-16T06:08:54.382Z,98490.00
2019-05-16T06:11:21.827Z,98499.00
2019-05-16T06:13:49.978Z,98489.00
2019-05-16T06:16:20.446Z,98495.00
2019-05-16T06:18:47.247Z,98489.00
2019-05-16T06:21:14.499Z,98484.00
2019-05-16T06:23:41.917Z,98494.00
2019-05-16T06:26:12.167Z,98489.00
2019-05-16T06:28:41.068Z,98487.00
2019-05-16T06:31:13.057Z,98492.00
2019-05-16T06:33:36.997Z,98486.00
2019-05-16T06:36:04.143Z,98488.00
2019-05-16T06:38:31.453Z,98490.00
2019-05-16T06:41:00.345Z,98488.00
2019-05-16T06:43:30.157Z,98486.00
2019-05-16T06:45:56.961Z,98486.00
2019-05-16T06:48:24.480Z,98488.00
2019-05-16T06:50:52.101Z,98488.00
2019-05-16T06:53:20.972Z,98482.00
2019-05-16T06:55:49.774Z,98479.00
2019-05-16T06:58:17.421Z,98477.00
2019-05-16T07:00:44.948Z,98478.00
2019-05-16T07:03:12.751Z,98483.00
2019-05-16T07:05:40.601Z,98477.00
2019-05-16T07:08:07.791Z,98473.00
2019-05-16T07:10:35.185Z,98479.00
2019-05-16T07:13:02.577Z,98473.00
2019-05-16T07:15:29.864Z,98475.00
2019-05-16T07:17:57.241Z,98477.00
2019-05-16T07:20:24.491Z,98469.00
2019-05-16T07:22:51.742Z,98468.00
2019-05-16T07:25:20.886Z,98469.00
2019-05-16T07:27:51.007Z,98468.00
2019-05-16T07:30:19.934Z,98461.00
2019-05-16T07:32:49.799Z,98456.00
2019-05-16T07:35:17.618Z,98456.00
2019-05-16T07:37:44.770Z,98460.00
2019-05-16T07:40:22.636Z,98457.00
2019-05-16T07:42:41.737Z,98463.00
2019-05-16T07:45:11.286Z,98449.00
2019-05-16T07:47:40.178Z,98450.00
2019-05-16T07:50:10.491Z,98451.00
2019-05-16T07:52:39.968Z,98442.00
2019-05-16T07:55:07.174Z,98442.00
2019-05-16T07:57:34.553Z,98439.00
2019-05-16T08:00:05.905Z,98434.00
2019-05-16T08:02:33.264Z,98432.00
2019-05-16T08:05:01.066Z,98429.00
2019-05-16T08:07:33.213Z,98429.00
2019-05-16T08:09:59.734Z,98434.00
2019-05-16T08:12:27.430Z,98429.00
2019-05-16T08:14:55.056Z,98430.00
2019-05-16T08:17:22.536Z,98435.00
2019-05-16T08:19:50.930Z,98426.00
2019-05-16T08:22:18.437Z,98430.00
2019-05-16T08:24:45.686Z,98426.00
2019-05-16T08:27:12.931Z,98427.00
2019-05-16T08:29:40.616Z,98427.00
2019-05-16T08:32:11.198Z,98425.00
2019-05-16T08:34:40.719Z,98425.00
2019-05-16T08:37:30.668Z,98423.00
2019-05-16T08:39:35.750Z,98418.00
2019-05-16T08:42:08.126Z,98416.00
2019-05-16T08:44:32.771Z,98413.00
2019-05-16T08:47:06.118Z,98408.00
2019-05-16T08:49:30.698Z,98412.00
2019-05-16T08:52:01.262Z,98402.00
2019-05-16T08:54:31.596Z,98406.00
2019-05-16T08:57:02.433Z,98401.00
2019-05-16T08:59:26.456Z,98393.00
2019-05-16T09:01:58.040Z,98398.00
2019-05-16T09:04:24.427Z,98385.00
2019-05-16T09:06:52.691Z,98397.00
2019-05-16T09:09:39.787Z,98391.00
2019-05-16T09:11:49.066Z,98390.00
2019-05-16T09:14:17.309Z,98392.00
2019-05-16T09:16:47.750Z,98391.00
2019-05-16T09:19:16.811Z,98380.00
2019-05-16T09:21:43.481Z,98383.00
2019-05-16T09:24:11.047Z,98388.00
2019-05-16T09:26:38.705Z,98379.00
2019-05-16T09:29:08.333Z,98383.00
2019-05-16T09:31:38.413Z,98382.00
2019-05-16T09:34:07.254Z,98375.00
2019-05-16T09:36:33.818Z,98373.00
2019-05-16T09:39:01.224Z,98370.00
2019-05-16T09:41:46.775Z,98372.00
2019-05-16T09:43:59.658Z,98375.00
2019-05-16T09:46:27.672Z,98374.00
2019-05-16T09:49:13.090Z,98372.00
2019-05-16T09:51:26.929Z,98370.00
2019-05-16T09:53:53.503Z,98371.00
2019-05-16T09:56:20.933Z,98372.00
2019-05-16T09:58:48.487Z,98361.00
2019-05-16T10:01:17.331Z,98361.00
2019-05-16T10:03:47.768Z,98354.00
2019-05-16T10:06:14.079Z,98358.00
2019-05-16T10:08:41.314Z,98364.00
2019-05-16T10:11:08.831Z,98356.00
2019-05-16T10:13:37.655Z,98364.00
2019-05-16T10:16:07.149Z,98356.00
2019-05-16T10:21:01.594Z,98351.00
2019-05-16T10:23:29.366Z,98356.00
2019-05-16T10:25:56.928Z,98351.00
2019-05-16T10:28:27.079Z,98351.00
2019-05-16T10:31:00.597Z,98349.00
2019-05-16T10:33:27.979Z,98334.00
2019-05-16T10:35:57.905Z,98331.00
2019-05-16T10:38:28.084Z,98321.00
2019-05-16T10:40:56.479Z,98324.00
2019-05-16T10:43:23.127Z,98325.00
2019-05-16T10:45:50.313Z,98311.00
2019-05-16T10:48:17.805Z,98312.00
2019-05-16T10:50:47.496Z,98307.00
2019-05-16T10:53:39.827Z,98309.00
2019-05-16T10:55:44.615Z,98306.00
2019-05-16T10:58:11.809Z,98297.00
2019-05-16T11:01:04.949Z,98304.00
2019-05-16T11:03:08.381Z,98301.00
2019-05-16T11:05:39.340Z,98294.00
2019-05-16T11:08:07.870Z,98292.00
2019-05-16T11:10:34.109Z,98285.00
2019-05-16T11:13:01.287Z,98296.00
2019-05-16T11:15:28.961Z,98290.00
2019-05-16T11:17:59.707Z,98297.00
2019-05-16T11:20:26.812Z,98291.00
2019-05-16T11:22:56.944Z,98294.00
2019-05-16T11:25:28.841Z,98295.00
2019-05-16T11:27:52.927Z,98295.00
2019-05-16T11:30:21.073Z,98297.00
2019-05-16T11:32:48.371Z,98289.00
2019-05-16T11:35:17.856Z,98279.00
2019-05-16T11:37:47.238Z,98284.00
2019-05-16T11:40:17.887Z,98279.00
2019-05-16T11:42:48.767Z,98272.00
2019-05-16T11:45:16.486Z,98266.00
2019-05-16T11:47:43.814Z,98267.00
2019-05-16T11:50:11.670Z,98265.00
2019-05-16T11:52:40.799Z,98265.00
2019-05-16T11:55:08.434Z,98266.00
2019-05-16T11:57:37.924Z,98265.00
2019-05-16T12:00:08.112Z,98269.00
2019-05-16T12:02:37.671Z,98263.00
2019-05-16T12:05:06.751Z,98261.00
2019-05-16T12:07:35.150Z,98260.00
2019-05-16T12:10:07.582Z,98259.00
2019-05-16T12:12:36.925Z,98255.00
2019-05-16T12:15:08.162Z,98248.00
2019-05-16T12:17:35.385Z,98253.00
2019-05-16T12:20:04.495Z,98244.00
2019-05-16T12:22:31.970Z,98242.00
2019-05-16T12:24:59.156Z,98248.00
2019-05-16T12:27:32.558Z,98239.00
2019-05-16T12:29:58.905Z,98241.00
2019-05-16T12:32:27.539Z,98238.00
2019-05-16T12:34:56.789Z,98233.00
2019-05-16T12:37:23.963Z,98233.00
2019-05-16T12:39:51.204Z,98236.00
2019-05-16T12:42:18.967Z,98224.00
2019-05-16T12:44:46.845Z,98218.00
2019-05-16T12:47:14.494Z,98225.00
2019-05-16T12:49:42.055Z,98216.00
2019-05-16T12:52:09.710Z,98227.00
2019-05-16T12:54:37.248Z,98224.00
2019-05-16T12:57:04.670Z,98213.00
2019-05-16T12:59:32.084Z,98224.00
2019-05-16T13:01:59.329Z,98221.00
2019-05-16T13:04:28.025Z,98217.00
2019-05-16T13:06:57.852Z,98214.00
2019-05-16T13:09:26.541Z,98211.00
2019-05-16T13:11:53.544Z,98205.00
2019-05-16T13:14:20.671Z,98211.00
2019-05-16T13:16:48.063Z,98215.00
2019-05-16T13:19:17.943Z,98219.00
2019-05-16T13:21:46.895Z,98213.00
2019-05-16T13:24:13.810Z,98208.00
2019-05-16T13:26:41.644Z,98208.00
2019-05-16T13:29:09.109Z,98201.00
2019-05-16T13:31:37.832Z,98200.00
2019-05-16T13:34:07.431Z,98207.00
2019-05-16T13:36:34.874Z,98199.00
2019-05-16T13:39:01.883Z,98194.00
2019-05-16T13:41:28.964Z,98197.00
2019-05-16T13:43:56.075Z,98187.00
2019-05-16T13:46:23.274Z,98183.00
2019-05-16T13:48:50.475Z,98184.00
2019-05-16T13:51:19.123Z,98185.00
2019-05-16T13:53:47.183Z,98183.00
2019-05-16T13:56:17.361Z,98175.00
2019-05-16T13:58:43.728Z,98178.00
2019-05-16T14:01:10.976Z,98179.00
2019-05-16T14:03:37.997Z,98178.00
2019-05-16T14:06:07.194Z,98177.00
2019-05-16T14:08:34.271Z,98171.00
2019-05-16T14:11:02.479Z,98174.00
2019-05-16T14:13:29.838Z,98174.00
2019-05-16T14:15:57.034Z,98176.00
2019-05-16T14:18:24.186Z,98170.00
2019-05-16T14:23:19.734Z,98167.00
2019-05-16T14:25:48.122Z,98173.00
2019-05-16T14:28:17.285Z,98164.00
2019-05-16T14:30:46.743Z,98163.00
2019-05-16T14:33:14.329Z,98168.00
2019-05-16T14:35:41.707Z,98164.00
2019-05-16T14:38:09.392Z,98153.00
2019-05-16T14:40:37.719Z,98157.00
2019-05-16T14:43:07.839Z,98153.00
2019-05-16T14:45:34.094Z,98152.00
2019-05-16T14:48:01.452Z,98153.00
2019-05-16T14:50:29.104Z,98155.00
2019-05-16T14:52:56.697Z,98157.00
2019-05-16T14:55:27.254Z,98158.00
2019-05-16T14:57:53.531Z,98156.00
2019-05-16T15:00:21.260Z,98158.00
2019-05-16T15:02:48.678Z,98160.00
2019-05-16T15:05:17.361Z,98161.00
2019-05-16T15:07:48.093Z,98155.00
2019-05-16T15:10:16.498Z,98161.00
2019-05-16T15:12:46.539Z,98155.00
2019-05-16T15:15:23.897Z,98156.00
2019-05-16T15:17:42.592Z,98159.00
2019-05-16T15:20:10.277Z,98154.00
2019-05-16T15:22:38.514Z,98153.00
2019-05-16T15:25:08.197Z,98156.00
2019-05-16T15:27:37.118Z,98147.00
2019-05-16T15:30:10.593Z,98145.00
2019-05-16T15:32:38.710Z,98155.00
2019-05-16T15:35:08.552Z,98152.00
2019-05-16T15:37:37.261Z,98156.00
2019-05-16T15:40:08.930Z,98154.00
2019-05-16T15:42:37.228Z,98154.00
2019-05-16T15:45:07.242Z,98147.00
2019-05-16T15:47:37.480Z,98154.00
2019-05-16T15:50:09.202Z,98150.00
2019-05-16T15:52:38.241Z,98148.00
2019-05-16T15:55:09.609Z,98149.00
2019-05-16T15:57:37.733Z,98147.00
2019-05-16T16:00:10.601Z,98156.00
2019-05-16T16:02:36.874Z,98153.00
2019-05-16T16:05:08.105Z,98148.00
2019-05-16T16:07:37.761Z,98138.00
2019-05-16T16:10:07.056Z,98139.00
2019-05-16T16:12:37.243Z,98135.00
2019-05-16T16:15:04.545Z,98139.00
2019-05-16T16:17:31.776Z,98127.00
2019-05-16T16:19:58.964Z,98135.00
2019-05-16T16:22:26.933Z,98128.00
2019-05-16T16:24:54.079Z,98130.00
2019-05-16T16:27:21.269Z,98132.00
2019-05-16T16:29:48.559Z,98126.00
2019-05-16T16:32:17.341Z,98121.00
2019-05-16T16:34:44.721Z,98131.00
2019-05-16T16:37:11.845Z,98126.00
2019-05-16T16:39:39.029Z,98117.00
2019-05-16T16:42:07.629Z,98134.00
2019-05-16T16:44:36.504Z,98127.00
2019-05-16T16:47:03.820Z,98127.00
2019-05-16T16:49:31.022Z,98129.00
2019-05-16T16:51:57.984Z,98125.00
2019-05-16T16:54:27.405Z,98129.00
2019-05-16T16:56:54.311Z,98128.00
2019-05-16T16:59:21.449Z,98126.00
2019-05-16T17:01:49.175Z,98139.00
2019-05-16T17:04:17.509Z,98127.00
2019-05-16T17:06:46.947Z,98132.00
2019-05-16T17:14:17.401Z,98134.00
2019-05-16T17:16:47.432Z,98133.00
2019-05-16T17:19:14.515Z,98135.00
2019-05-16T17:21:51.912Z,98141.00
2019-05-16T17:24:11.444Z,98141.00
2019-05-16T17:26:38.698Z,98146.00
2019-05-16T17:29:06.568Z,98139.00
2019-05-16T17:31:33.875Z,98143.00
2019-05-16T17:34:01.409Z,98143.00
2019-05-16T17:36:28.729Z,98146.00
2019-05-16T17:38:57.118Z,98148.00
2019-05-16T17:41:24.567Z,98148.00
2019-05-16T17:43:52.017Z,98144.00
2019-05-16T17:46:33.699Z,98146.00
2019-05-16T17:48:48.589Z,98148.00
2019-05-16T17:51:16.893Z,98150.00
2019-05-16T17:53:44.137Z,98148.00
2019-05-16T17:56:11.212Z,98147.00
2019-05-16T17:58:38.368Z,98142.00
2019-05-16T18:01:07.966Z,98144.00
2019-05-16T18:03:37.092Z,98137.00
2019-05-16T18:06:06.172Z,98136.00
2019-05-16T18:08:33.001Z,98147.00
2019-05-16T18:11:00.502Z,98149.00
2019-05-16T18:13:27.614Z,98142.00
2019-05-16T18:15:56.747Z,98147.00
2019-05-16T18:18:24.079Z,98144.00
2019-05-16T18:20:57.722Z,98145.00
2019-05-16T18:23:20.635Z,98151.00
2019-05-16T18:25:48.083Z,98145.00
2019-05-16T18:28:17.498Z,98148.00
2019-05-16T18:30:47.240Z,98139.00
2019-05-16T18:33:16.617Z,98149.00
2019-05-16T18:35:46.625Z,98152.00
2019-05-16T18:38:14.153Z,98152.00
2019-05-16T18:40:41.789Z,98150.00
2019-05-16T18:43:09.120Z,98149.00
2019-05-16T18:45:36.821Z,98149.00
2019-05-16T18:48:07.250Z,98149.00
2019-05-16T18:50:37.269Z,98156.00
2019-05-16T18:53:07.029Z,98152.00
2019-05-16T18:55:34.331Z,98156.00
2019-05-16T18:58:04.947Z,98159.00
2019-05-16T19:00:31.582Z,98165.00
2019-05-16T19:02:59.354Z,98159.00
2019-05-16T19:05:26.918Z,98154.00
2019-05-16T19:07:56.263Z,98154.00
2019-05-16T19:10:23.410Z,98156.00
2019-05-16T19:12:50.906Z,98156.00
2019-05-16T19:15:18.501Z,98156.00
2019-05-16T19:17:45.866Z,98156.00
2019-05-16T19:20:17.136Z,98153.00
2019-05-16T19:22:44.851Z,98163.00
2019-05-16T19:25:12.551Z,98159.00
2019-05-16T19:27:39.880Z,98165.00
2019-05-16T19:30:10.042Z,98167.00
2019-05-16T19:32:39.495Z,98162.00
2019-05-16T19:35:07.244Z,98161.00
2019-05-16T19:37:38.251Z,98160.00
2019-05-16T19:40:07.330Z,98165.00
2019-05-16T19:42:36.773Z,98162.00
2019-05-16T19:45:07.584Z,98159.00
2019-05-16T19:47:38.473Z,98156.00
2019-05-16T19:50:06.781Z,98150.00
2019-05-16T19:52:36.396Z,98161.00
2019-05-16T19:55:07.171Z,98164.00
2019-05-16T19:57:34.653Z,98154.00
2019-05-16T20:00:03.973Z,98160.00
2019-05-16T20:02:31.199Z,98166.00
2019-05-16T20:04:58.443Z,98159.00
2019-05-16T20:07:26.351Z,98165.00
2019-05-16T20:09:53.773Z,98159.00
2019-05-16T20:12:20.942Z,98159.00
2019-05-16T20:14:48.479Z,98156.00
2019-05-16T20:17:16.167Z,98159.00
2019-05-16T20:19:47.058Z,98162.00
2019-05-16T20:22:16.557Z,98154.00
2019-05-16T20:24:43.522Z,98155.00
2019-05-16T20:27:10.673Z,98162.00
2019-05-16T20:29:38.263Z,98154.00
2019-05-16T20:32:07.915Z,98154.00
2019-05-16T20:34:37.043Z,98151.00
2019-05-16T20:37:06.120Z,98152.00
2019-05-16T20:39:33.483Z,98154.00
2019-05-16T20:42:01.049Z,98156.00
2019-05-16T20:44:28.234Z,98153.00
2019-05-16T20:46:56.745Z,98142.00
2019-05-16T20:49:24.228Z,98140.00
2019-05-16T20:51:51.468Z,98143.00
2019-05-16T20:54:20.293Z,98143.00
2019-05-16T20:56:49.473Z,98148.00
2019-05-16T20:59:17.254Z,98140.00
2019-05-16T21:01:46.508Z,98147.00
2019-05-16T21:04:13.778Z,98145.00
2019-05-16T21:06:54.480Z,98149.00
2019-05-16T21:09:10.859Z,98143.00
2019-05-16T21:11:38.573Z,98136.00
2019-05-16T21:14:07.117Z,98141.00
2019-05-16T21:16:34.423Z,98135.00
2019-05-16T21:19:01.784Z,98135.00
2019-05-16T21:21:29.042Z,98133.00
2019-05-16T21:23:56.441Z,98135.00
2019-05-16T21:26:26.198Z,98129.00
2019-05-16T21:28:53.244Z,98129.00
2019-05-16T21:31:20.499Z,98134.00
2019-05-16T21:33:47.847Z,98126.00
2019-05-16T21:36:16.069Z,98132.00
2019-05-16T21:38:44.393Z,98129.00
2019-05-16T21:41:11.863Z,98131.00
2019-05-16T21:43:39.143Z,98131.00
2019-05-16T21:46:07.317Z,98128.00
2019-05-16T21:48:36.885Z,98120.00
2019-05-16T21:51:03.903Z,98128.00
2019-05-16T21:53:31.289Z,98122.00
2019-05-16T21:55:58.848Z,98125.00
2019-05-16T21:58:26.693Z,98122.00
2019-05-16T22:00:58.208Z,98116.00
2019-05-16T22:03:26.975Z,98117.00
2019-05-16T22:05:57.338Z,98107.00
2019-05-16T22:08:23.494Z,98109.00
2019-05-16T22:10:50.953Z,98113.00
2019-05-16T22:13:18.608Z,98110.00
2019-05-16T22:15:46.511Z,98103.00
2019-05-16T22:18:16.386Z,98098.00
2019-05-16T22:20:43.564Z,98094.00
2019-05-16T22:23:10.688Z,98099.00
2019-05-16T22:25:38.064Z,98100.00
2019-05-16T22:28:07.171Z,98096.00
2019-05-16T22:30:36.519Z,98101.00
2019-05-16T22:33:04.075Z,98096.00
2019-05-16T22:35:31.247Z,98092.00
2019-05-16T22:37:59.443Z,98096.00
2019-05-16T22:40:27.102Z,98087.00
2019-05-16T22:42:54.238Z,98084.00
2019-05-16T22:45:22.048Z,98078.00
2019-05-16T22:47:49.248Z,98082.00
2019-05-16T22:50:17.759Z,98076.00
2019-05-16T22:52:45.493Z,98071.00
2019-05-16T22:55:16.983Z,98073.00
2019-05-16T22:57:47.062Z,98066.00
2019-05-16T23:00:17.748Z,98066.00
2019-05-16T23:02:45.233Z,98062.00
2019-05-16T23:05:12.848Z,98061.00
2019-05-16T23:07:39.953Z,98060.00
2019-05-16T23:10:07.555Z,98055.00
2019-05-16T23:12:37.198Z,98063.00
2019-05-16T23:15:06.692Z,98061.00
2019-05-16T23:17:34.393Z,98065.00
2019-05-16T23:20:01.723Z,98057.00
2019-05-16T23:22:29.368Z,98057.00
2019-05-16T23:24:57.062Z,98052.00
2019-05-16T23:27:27.139Z,98058.00
2019-05-16T23:29:54.014Z,98052.00
2019-05-16T23:32:22.718Z,98048.00
2019-05-16T23:34:50.149Z,98045.00
2019-05-16T23:37:17.508Z,98042.00
2019-05-16T23:39:47.323Z,98046.00
2019-05-16T23:42:14.067Z,98045.00
2019-05-16T23:44:41.287Z,98038.00
2019-05-16T23:47:08.967Z,98047.00
2019-05-16T23:49:36.867Z,98044.00
2019-05-16T23:52:04.434Z,98040.00
2019-05-16T23:54:31.613Z,98040.00
2019-05-16T23:56:59.128Z,98034.00
2019-05-16T23:59:27.722Z,98036.00
